TAP145 LEIB-LEPA
Flight info
| Callsign | TAP145 |
|---|---|
| Flight time | 0h 23m |
| Altitude | 8000 |
| Route | LAMPA |
| Aircraft | A21N/M-SDE2E3FGHIRWXY/LB1 |
Departure
| Time | 2026-05-01 15:09 |
|---|---|
| Airport | Ibiza Airport (LEIB) |
Arrival
| Time | 2026-05-01 15:32 |
|---|---|
| Airport | Palma de Mallorca Airport (LEPA) |
| Time | Latitude | Longitude | Altitude | Speed | Heading |
|---|---|---|---|---|---|
| 2026-05-01 14:43 | 38.87489 | 1.36742 | 29 ft | 0 kts | 15° |
| 2026-05-01 14:55 | 38.87490 | 1.36743 | 29 ft | 0 kts | 15° |
| 2026-05-01 14:55 | 38.87482 | 1.36740 | 29 ft | 2 kts | 15° |
| 2026-05-01 14:55 | 38.87468 | 1.36735 | 29 ft | 2 kts | 15° |
| 2026-05-01 14:55 | 38.87453 | 1.36729 | 29 ft | 2 kts | 15° |
| 2026-05-01 14:56 | 38.87439 | 1.36725 | 29 ft | 2 kts | 15° |
| 2026-05-01 14:56 | 38.87425 | 1.36719 | 29 ft | 2 kts | 15° |
| 2026-05-01 14:56 | 38.87410 | 1.36712 | 29 ft | 2 kts | 35° |
| 2026-05-01 14:56 | 38.87399 | 1.36699 | 29 ft | 2 kts | 51° |
| 2026-05-01 14:57 | 38.87394 | 1.36690 | 29 ft | 1 kts | 62° |
| 2026-05-01 14:57 | 38.87391 | 1.36684 | 29 ft | 0 kts | 63° |
| 2026-05-01 15:00 | 38.87405 | 1.36718 | 29 ft | 9 kts | 63° |
| 2026-05-01 15:00 | 38.87443 | 1.36810 | 29 ft | 12 kts | 61° |
| 2026-05-01 15:00 | 38.87487 | 1.36912 | 29 ft | 13 kts | 61° |
| 2026-05-01 15:01 | 38.87530 | 1.37015 | 29 ft | 13 kts | 61° |
| 2026-05-01 15:01 | 38.87574 | 1.37121 | 29 ft | 13 kts | 63° |
| 2026-05-01 15:01 | 38.87616 | 1.37226 | 29 ft | 13 kts | 60° |
| 2026-05-01 15:01 | 38.87661 | 1.37331 | 29 ft | 13 kts | 63° |
| 2026-05-01 15:02 | 38.87682 | 1.37384 | 29 ft | 3 kts | 61° |
| 2026-05-01 15:02 | 38.87691 | 1.37405 | 29 ft | 4 kts | 61° |
| 2026-05-01 15:02 | 38.87698 | 1.37462 | 29 ft | 5 kts | 109° |
| 2026-05-01 15:02 | 38.87671 | 1.37497 | 29 ft | 6 kts | 147° |
| 2026-05-01 15:03 | 38.87631 | 1.37524 | 29 ft | 6 kts | 153° |
| 2026-05-01 15:03 | 38.87585 | 1.37545 | 29 ft | 7 kts | 183° |
| 2026-05-01 15:03 | 38.87551 | 1.37500 | 29 ft | 7 kts | 243° |
| 2026-05-01 15:03 | 38.87531 | 1.37434 | 29 ft | 8 kts | 238° |
| 2026-05-01 15:04 | 38.87499 | 1.37369 | 29 ft | 9 kts | 239° |
| 2026-05-01 15:04 | 38.87463 | 1.37286 | 29 ft | 11 kts | 242° |
| 2026-05-01 15:04 | 38.87418 | 1.37177 | 29 ft | 15 kts | 241° |
| 2026-05-01 15:04 | 38.87360 | 1.37041 | 29 ft | 18 kts | 242° |
| 2026-05-01 15:05 | 38.87296 | 1.36885 | 29 ft | 20 kts | 242° |
| 2026-05-01 15:05 | 38.87228 | 1.36720 | 29 ft | 21 kts | 242° |
| 2026-05-01 15:05 | 38.87156 | 1.36547 | 29 ft | 21 kts | 242° |
| 2026-05-01 15:05 | 38.87088 | 1.36380 | 29 ft | 20 kts | 242° |
| 2026-05-01 15:06 | 38.87022 | 1.36219 | 29 ft | 19 kts | 242° |
| 2026-05-01 15:06 | 38.86959 | 1.36067 | 29 ft | 19 kts | 242° |
| 2026-05-01 15:06 | 38.86898 | 1.35920 | 29 ft | 18 kts | 242° |
| 2026-05-01 15:06 | 38.86837 | 1.35786 | 29 ft | 16 kts | 223° |
| 2026-05-01 15:07 | 38.86787 | 1.35773 | 29 ft | 0 kts | 161° |
| 2026-05-01 15:07 | 38.86775 | 1.35779 | 29 ft | 9 kts | 151° |
| 2026-05-01 15:07 | 38.86719 | 1.35911 | 29 ft | 18 kts | 96° |
| 2026-05-01 15:08 | 38.86737 | 1.35986 | 29 ft | 0 kts | 64° |
| 2026-05-01 15:08 | 38.86739 | 1.35992 | 29 ft | 1 kts | 64° |
| 2026-05-01 15:08 | 38.86757 | 1.36040 | 29 ft | 26 kts | 63° |
| 2026-05-01 15:08 | 38.86986 | 1.36590 | 29 ft | 111 kts | 60° |
| 2026-05-01 15:09 | 38.87460 | 1.37738 | 90 ft | 172 kts | 62° |
| 2026-05-01 15:09 | 38.87984 | 1.39111 | 869 ft | 174 kts | 70° |
| 2026-05-01 15:09 | 38.88253 | 1.40606 | 1694 ft | 178 kts | 83° |
| 2026-05-01 15:09 | 38.88370 | 1.42200 | 2430 ft | 184 kts | 81° |
| 2026-05-01 15:10 | 38.88670 | 1.43838 | 3006 ft | 198 kts | 72° |
| 2026-05-01 15:10 | 38.89651 | 1.47303 | 4316 ft | 219 kts | 73° |
| 2026-05-01 15:10 | 38.90015 | 1.49231 | 5014 ft | 228 kts | 77° |
| 2026-05-01 15:11 | 38.90357 | 1.51199 | 5524 ft | 228 kts | 77° |
| 2026-05-01 15:11 | 38.90807 | 1.55220 | 5816 ft | 233 kts | 93° |
| 2026-05-01 15:11 | 38.90635 | 1.57393 | 6020 ft | 257 kts | 97° |
| 2026-05-01 15:12 | 38.90387 | 1.59725 | 6667 ft | 272 kts | 97° |
| 2026-05-01 15:12 | 38.89872 | 1.64589 | 7834 ft | 280 kts | 100° |
| 2026-05-01 15:12 | 38.89381 | 1.67011 | 7996 ft | 280 kts | 110° |
| 2026-05-01 15:13 | 38.86968 | 1.73823 | 8002 ft | 280 kts | 115° |
| 2026-05-01 15:14 | 38.85306 | 1.78344 | 8002 ft | 280 kts | 115° |
| 2026-05-01 15:14 | 38.84480 | 1.80611 | 8002 ft | 280 kts | 115° |
| 2026-05-01 15:14 | 38.82840 | 1.85117 | 8002 ft | 280 kts | 115° |
| 2026-05-01 15:15 | 38.81206 | 1.89614 | 8001 ft | 280 kts | 113° |
| 2026-05-01 15:15 | 38.81332 | 1.94395 | 7994 ft | 280 kts | 58° |
| 2026-05-01 15:16 | 38.83700 | 1.98323 | 8004 ft | 280 kts | 51° |
| 2026-05-01 15:16 | 38.86139 | 2.02232 | 8002 ft | 280 kts | 51° |
| 2026-05-01 15:17 | 38.88539 | 2.06156 | 8002 ft | 280 kts | 52° |
| 2026-05-01 15:18 | 38.92106 | 2.12044 | 8002 ft | 280 kts | 52° |
| 2026-05-01 15:18 | 38.93298 | 2.14019 | 8002 ft | 280 kts | 52° |
| 2026-05-01 15:19 | 38.96861 | 2.19929 | 8002 ft | 280 kts | 52° |
| 2026-05-01 15:19 | 38.99250 | 2.23901 | 8002 ft | 280 kts | 52° |
| 2026-05-01 15:19 | 39.00431 | 2.25864 | 8002 ft | 280 kts | 52° |
| 2026-05-01 15:20 | 39.02799 | 2.29804 | 8002 ft | 280 kts | 52° |
| 2026-05-01 15:20 | 39.03986 | 2.31778 | 8002 ft | 280 kts | 52° |
| 2026-05-01 15:20 | 39.05188 | 2.33779 | 8002 ft | 280 kts | 52° |
| 2026-05-01 15:21 | 39.06366 | 2.35744 | 8002 ft | 280 kts | 52° |
| 2026-05-01 15:21 | 39.07547 | 2.37715 | 8002 ft | 280 kts | 52° |
| 2026-05-01 15:21 | 39.08739 | 2.39705 | 8002 ft | 280 kts | 52° |
| 2026-05-01 15:21 | 39.09918 | 2.41677 | 8002 ft | 280 kts | 52° |
| 2026-05-01 15:22 | 39.12287 | 2.45642 | 8002 ft | 280 kts | 52° |
| 2026-05-01 15:22 | 39.13470 | 2.47624 | 8000 ft | 276 kts | 52° |
| 2026-05-01 15:22 | 39.14605 | 2.49525 | 7996 ft | 260 kts | 52° |
| 2026-05-01 15:23 | 39.15692 | 2.51348 | 7999 ft | 257 kts | 52° |
| 2026-05-01 15:23 | 39.16780 | 2.53172 | 8001 ft | 257 kts | 52° |
| 2026-05-01 15:23 | 39.17882 | 2.55018 | 8002 ft | 257 kts | 52° |
| 2026-05-01 15:23 | 39.18987 | 2.56825 | 7999 ft | 258 kts | 46° |
| 2026-05-01 15:24 | 39.20469 | 2.58035 | 7891 ft | 254 kts | 12° |
| 2026-05-01 15:24 | 39.22198 | 2.58059 | 7552 ft | 253 kts | 351° |
| 2026-05-01 15:24 | 39.23934 | 2.57697 | 7164 ft | 252 kts | 350° |
| 2026-05-01 15:24 | 39.25658 | 2.57347 | 6629 ft | 254 kts | 351° |
| 2026-05-01 15:25 | 39.27417 | 2.57041 | 6082 ft | 255 kts | 352° |
| 2026-05-01 15:25 | 39.29151 | 2.56777 | 5625 ft | 253 kts | 353° |
| 2026-05-01 15:25 | 39.30889 | 2.56536 | 5170 ft | 251 kts | 353° |
| 2026-05-01 15:25 | 39.32630 | 2.56308 | 4714 ft | 249 kts | 354° |
| 2026-05-01 15:26 | 39.34325 | 2.56093 | 4271 ft | 247 kts | 354° |
| 2026-05-01 15:26 | 39.36026 | 2.55880 | 3819 ft | 245 kts | 354° |
| 2026-05-01 15:26 | 39.37688 | 2.55673 | 3437 ft | 240 kts | 354° |
| 2026-05-01 15:26 | 39.39357 | 2.55466 | 3194 ft | 242 kts | 354° |
| 2026-05-01 15:27 | 39.41012 | 2.55260 | 2875 ft | 238 kts | 354° |
| 2026-05-01 15:27 | 39.42656 | 2.55056 | 2832 ft | 239 kts | 354° |
| 2026-05-01 15:27 | 39.44304 | 2.54850 | 2820 ft | 229 kts | 354° |
| 2026-05-01 15:28 | 39.47102 | 2.55566 | 2819 ft | 196 kts | 40° |
| 2026-05-01 15:28 | 39.47970 | 2.56838 | 2563 ft | 182 kts | 54° |
| 2026-05-01 15:28 | 39.48634 | 2.58150 | 2337 ft | 168 kts | 58° |
| 2026-05-01 15:29 | 39.49741 | 2.60530 | 1860 ft | 143 kts | 58° |
| 2026-05-01 15:29 | 39.50255 | 2.61632 | 1677 ft | 143 kts | 58° |
| 2026-05-01 15:29 | 39.51290 | 2.63816 | 1318 ft | 142 kts | 58° |
| 2026-05-01 15:30 | 39.52327 | 2.65981 | 964 ft | 141 kts | 59° |
| 2026-05-01 15:31 | 39.54350 | 2.70300 | 209 ft | 140 kts | 59° |
| 2026-05-01 15:31 | 39.55298 | 2.72305 | 30 ft | 106 kts | 58° |
| 2026-05-01 15:32 | 39.55444 | 2.72893 | 30 ft | 26 kts | 125° |
| 2026-05-01 15:32 | 39.55200 | 2.73024 | 30 ft | 7 kts | 195° |